createdAt,value
2019-04-06T00:01:14.223Z,67.58
2019-04-06T00:03:41.390Z,70.17
2019-04-06T00:06:08.556Z,66.07
2019-04-06T00:08:35.599Z,63.23
2019-04-06T00:11:02.867Z,65.50
2019-04-06T00:13:29.958Z,61.48
2019-04-06T00:15:57.046Z,62.30
2019-04-06T00:18:24.131Z,62.35
2019-04-06T00:20:51.325Z,67.08
2019-04-06T00:23:18.553Z,64.03
2019-04-06T00:25:45.674Z,62.85
2019-04-06T00:28:13.894Z,60.33
2019-04-06T00:30:50.188Z,58.63
2019-04-06T00:33:18.266Z,62.73
2019-04-06T00:35:45.557Z,65.72
2019-04-06T00:38:12.733Z,65.08
2019-04-06T00:40:40.329Z,65.65
2019-04-06T00:43:07.589Z,68.07
2019-04-06T00:45:34.829Z,65.85
2019-04-06T00:48:02.639Z,64.17
2019-04-06T00:50:29.698Z,69.20
2019-04-06T00:52:57.128Z,63.00
2019-04-06T00:55:24.194Z,61.25
2019-04-06T00:57:51.278Z,64.60
2019-04-06T01:00:19.836Z,66.90
2019-04-06T01:02:46.846Z,66.87
2019-04-06T01:05:13.879Z,58.70
2019-04-06T01:07:41.104Z,65.22
2019-04-06T01:10:08.678Z,62.33
2019-04-06T01:12:36.246Z,63.15
2019-04-06T01:15:04.464Z,61.30
2019-04-06T01:17:31.497Z,69.58
2019-04-06T01:19:58.525Z,74.55
2019-04-06T01:22:25.570Z,64.00
2019-04-06T01:24:52.979Z,65.42
2019-04-06T01:27:20.020Z,69.35
2019-04-06T01:29:47.425Z,68.02
2019-04-06T01:32:15.418Z,71.90
2019-04-06T01:34:42.595Z,79.10
2019-04-06T01:37:09.966Z,71.15
2019-04-06T01:39:37.683Z,77.53
2019-04-06T01:42:04.765Z,80.20
2019-04-06T01:44:32.152Z,81.32
2019-04-06T01:46:59.272Z,73.00
2019-04-06T01:49:26.666Z,72.97
2019-04-06T01:51:53.970Z,77.25
2019-04-06T01:54:21.255Z,78.07
2019-04-06T01:56:48.338Z,75.70
2019-04-06T01:59:15.628Z,73.17
2019-04-06T02:02:11.623Z,77.12
2019-04-06T02:04:38.695Z,74.50
2019-04-06T02:07:05.822Z,74.87
2019-04-06T02:09:32.932Z,70.95
2019-04-06T02:11:59.991Z,69.62
2019-04-06T02:14:27.041Z,75.25
2019-04-06T02:16:54.162Z,75.92
2019-04-06T02:19:21.251Z,79.60
2019-04-06T02:21:48.634Z,71.17
2019-04-06T02:24:16.396Z,80.32
2019-04-06T02:26:43.731Z,80.85
2019-04-06T02:29:10.756Z,77.92
2019-04-06T02:31:55.293Z,77.60
2019-04-06T02:34:33.844Z,74.42
2019-04-06T02:37:11.488Z,82.80
2019-04-06T02:39:52.200Z,82.53
2019-04-06T02:42:25.291Z,71.10
2019-04-06T02:44:52.522Z,75.80
2019-04-06T02:47:20.152Z,79.15
2019-04-06T02:49:47.285Z,83.47
2019-04-06T02:52:14.806Z,74.70
2019-04-06T02:54:41.901Z,74.45
2019-04-06T02:57:09.344Z,72.27
2019-04-06T02:59:36.391Z,75.65
2019-04-06T03:02:03.605Z,69.80
2019-04-06T03:04:30.849Z,70.12
2019-04-06T03:06:59.119Z,76.40
2019-04-06T03:09:26.507Z,74.05
2019-04-06T03:11:53.950Z,72.78
2019-04-06T03:14:21.220Z,67.25
2019-04-06T03:16:48.292Z,71.97
2019-04-06T03:19:23.295Z,70.40
2019-04-06T03:21:50.471Z,73.10
2019-04-06T03:24:17.899Z,73.28
2019-04-06T03:26:59.259Z,71.72
2019-04-06T03:29:14.188Z,73.62
2019-04-06T03:31:41.310Z,71.90
2019-04-06T03:34:09.766Z,70.62
2019-04-06T03:36:37.154Z,65.32
2019-04-06T03:39:05.962Z,69.50
2019-04-06T03:41:33.437Z,71.12
2019-04-06T03:44:00.983Z,71.42
2019-04-06T03:46:28.046Z,69.95
2019-04-06T03:48:55.293Z,76.97
2019-04-06T03:51:22.330Z,76.28
2019-04-06T03:53:49.990Z,71.50
2019-04-06T03:56:17.237Z,72.97
2019-04-06T03:58:44.414Z,75.03
2019-04-06T04:01:11.510Z,72.65
2019-04-06T04:03:38.660Z,77.85
2019-04-06T04:06:05.799Z,72.53
2019-04-06T04:08:33.376Z,72.32
2019-04-06T04:11:00.642Z,72.70
2019-04-06T04:13:28.051Z,70.47
2019-04-06T04:15:57.181Z,68.05
2019-04-06T04:18:24.094Z,67.20
2019-04-06T04:20:51.506Z,68.92
2019-04-06T04:23:18.526Z,69.00
2019-04-06T04:25:45.782Z,66.05
2019-04-06T04:28:12.977Z,64.97
2019-04-06T04:30:40.170Z,69.42
2019-04-06T04:33:07.538Z,70.50
2019-04-06T04:35:34.969Z,68.57
2019-04-06T04:38:02.334Z,70.40
2019-04-06T04:40:29.399Z,75.35
2019-04-06T04:42:56.460Z,72.62
2019-04-06T04:45:23.627Z,82.65
2019-04-06T04:47:50.744Z,73.40
2019-04-06T04:50:17.968Z,76.92
2019-04-06T04:52:45.110Z,71.37
2019-04-06T04:55:12.511Z,76.20
2019-04-06T04:57:41.470Z,77.50
2019-04-06T05:00:09.110Z,72.60
2019-04-06T05:02:36.178Z,76.30
2019-04-06T05:05:03.787Z,71.37
2019-04-06T05:07:31.079Z,79.30
2019-04-06T05:09:58.087Z,75.42
2019-04-06T05:12:25.046Z,74.67
2019-04-06T05:15:04.119Z,80.38
2019-04-06T05:17:31.196Z,72.72
2019-04-06T05:19:58.518Z,72.80
2019-04-06T05:22:25.958Z,80.22
2019-04-06T05:24:53.177Z,73.67
2019-04-06T05:27:21.608Z,83.67
2019-04-06T05:29:49.136Z,81.63
2019-04-06T05:32:17.409Z,84.32
2019-04-06T05:34:44.902Z,84.17
2019-04-06T05:37:12.083Z,80.32
2019-04-06T05:39:39.281Z,82.45
2019-04-06T05:42:06.247Z,82.70
2019-04-06T05:44:33.450Z,78.75
2019-04-06T05:47:00.398Z,82.72
2019-04-06T05:49:27.471Z,79.95
2019-04-06T05:51:54.430Z,84.70
2019-04-06T05:54:21.553Z,78.95
2019-04-06T05:56:48.870Z,87.75
2019-04-06T05:59:16.184Z,83.47
2019-04-06T06:01:43.330Z,89.97
2019-04-06T06:04:10.807Z,87.70
2019-04-06T06:06:39.091Z,92.10
2019-04-06T06:09:06.411Z,98.67
2019-04-06T06:11:33.473Z,90.85
2019-04-06T06:14:00.616Z,88.37
2019-04-06T06:16:27.682Z,94.85
2019-04-06T06:18:54.691Z,92.20
2019-04-06T06:21:22.160Z,96.30
2019-04-06T06:23:49.694Z,102.50
2019-04-06T06:26:16.870Z,108.22
2019-04-06T06:28:44.346Z,101.33
2019-04-06T06:31:11.578Z,101.45
2019-04-06T06:33:38.839Z,104.40
2019-04-06T06:36:06.505Z,106.70
2019-04-06T06:38:33.688Z,98.45
2019-04-06T06:41:01.067Z,101.62
2019-04-06T06:43:28.408Z,107.35
2019-04-06T06:45:55.539Z,101.12
2019-04-06T06:48:22.582Z,101.85
2019-04-06T06:50:49.572Z,108.65
2019-04-06T06:53:16.684Z,98.85
2019-04-06T06:55:44.007Z,103.38
2019-04-06T06:58:11.292Z,105.78
2019-04-06T07:00:38.504Z,105.32
2019-04-06T07:03:05.695Z,103.95
2019-04-06T07:05:32.835Z,106.67
2019-04-06T07:07:59.902Z,103.30
2019-04-06T07:10:27.166Z,105.90
2019-04-06T07:12:54.251Z,99.92
2019-04-06T07:15:21.364Z,105.03
2019-04-06T07:17:48.700Z,97.90
2019-04-06T07:20:16.169Z,98.82
2019-04-06T07:22:43.272Z,96.17
2019-04-06T07:25:10.482Z,99.20
2019-04-06T07:27:38.013Z,93.42
2019-04-06T07:30:05.667Z,101.35
2019-04-06T07:32:32.699Z,100.18
2019-04-06T07:35:00.177Z,97.02
2019-04-06T07:37:27.643Z,96.32
2019-04-06T07:39:54.634Z,90.28
2019-04-06T07:42:21.643Z,86.42
2019-04-06T07:44:49.007Z,93.37
2019-04-06T07:47:16.008Z,83.15
2019-04-06T07:49:43.085Z,86.78
2019-04-06T07:52:10.295Z,84.95
2019-04-06T07:54:37.363Z,84.03
2019-04-06T07:57:04.453Z,89.97
2019-04-06T07:59:31.559Z,86.55
2019-04-06T08:01:58.568Z,87.42
2019-04-06T08:04:25.934Z,87.17
2019-04-06T08:06:53.143Z,80.40
2019-04-06T08:09:20.130Z,84.32
2019-04-06T08:11:47.380Z,82.02
2019-04-06T08:14:14.473Z,76.67
2019-04-06T08:16:41.720Z,76.87
2019-04-06T08:19:08.795Z,76.15
2019-04-06T08:21:35.850Z,81.15
2019-04-06T08:24:03.177Z,77.72
2019-04-06T08:26:30.252Z,76.67
2019-04-06T08:29:01.849Z,85.28
2019-04-06T08:31:26.881Z,77.27
2019-04-06T08:33:53.991Z,73.55
2019-04-06T08:36:21.890Z,71.20
2019-04-06T08:38:49.095Z,66.53
2019-04-06T08:41:16.636Z,72.58
2019-04-06T08:43:43.639Z,77.55
2019-04-06T08:46:10.703Z,74.42
2019-04-06T08:48:38.067Z,79.20
2019-04-06T08:51:05.079Z,71.35
2019-04-06T08:53:32.116Z,77.37
2019-04-06T08:56:00.013Z,70.00
2019-04-06T08:58:27.599Z,66.87
2019-04-06T09:00:54.602Z,69.82
2019-04-06T09:03:21.691Z,75.22
2019-04-06T09:05:48.859Z,69.40
2019-04-06T09:08:15.959Z,65.12
2019-04-06T09:10:43.102Z,66.40
2019-04-06T09:13:11.631Z,68.62
2019-04-06T09:15:38.904Z,68.05
2019-04-06T09:18:05.936Z,67.82
2019-04-06T09:20:33.197Z,63.08
2019-04-06T09:23:00.670Z,66.77
2019-04-06T09:25:28.828Z,65.92
2019-04-06T09:27:55.914Z,72.67
2019-04-06T09:30:23.032Z,67.53
2019-04-06T09:32:50.286Z,68.62
2019-04-06T09:35:17.400Z,67.62
2019-04-06T09:37:44.766Z,67.60
2019-04-06T09:40:11.943Z,63.70
2019-04-06T09:42:39.025Z,65.08
2019-04-06T09:45:32.728Z,66.92
2019-04-06T09:48:11.646Z,63.68
2019-04-06T09:50:52.055Z,67.15
2019-04-06T09:53:48.078Z,67.37
2019-04-06T09:56:25.043Z,59.00
2019-04-06T09:59:10.574Z,60.63
2019-04-06T10:01:56.361Z,66.87
2019-04-06T10:04:45.542Z,76.45
2019-04-06T10:07:35.154Z,64.22
2019-04-06T10:10:24.022Z,64.92
2019-04-06T10:13:14.524Z,65.37
2019-04-06T10:16:00.423Z,62.75
2019-04-06T10:18:33.066Z,61.33
2019-04-06T10:21:19.996Z,59.38
2019-04-06T10:24:12.710Z,61.50
2019-04-06T10:26:52.688Z,60.40
2019-04-06T10:29:31.814Z,67.15
2019-04-06T10:32:04.948Z,54.25
2019-04-06T10:34:50.732Z,67.12
2019-04-06T10:37:37.679Z,57.73
2019-04-06T10:40:14.727Z,58.87
2019-04-06T10:42:49.851Z,53.83
2019-04-06T10:45:42.370Z,51.88
2019-04-06T10:48:17.324Z,53.78
2019-04-06T10:51:03.033Z,53.48
2019-04-06T10:53:58.883Z,57.13
2019-04-06T10:56:54.385Z,53.75
2019-04-06T10:59:33.187Z,58.83
2019-04-06T11:02:20.311Z,51.73
2019-04-06T11:05:03.181Z,46.55
2019-04-06T11:07:39.698Z,49.10
2019-04-06T11:10:15.126Z,50.38
2019-04-06T11:13:00.600Z,48.75
2019-04-06T11:15:47.022Z,43.28
2019-04-06T11:18:33.991Z,44.08
2019-04-06T11:21:27.835Z,38.35
2019-04-06T11:24:02.603Z,43.00
2019-04-06T11:26:38.485Z,43.92
2019-04-06T11:29:31.617Z,44.85
2019-04-06T11:32:09.147Z,41.53
2019-04-06T11:34:58.047Z,38.80
2019-04-06T11:37:45.038Z,38.28
2019-04-06T11:40:21.922Z,43.35
2019-04-06T11:43:17.795Z,40.45
2019-04-06T11:45:54.201Z,41.58
2019-04-06T11:48:29.639Z,41.60
2019-04-06T11:51:15.071Z,40.40
2019-04-06T11:54:00.614Z,41.37
2019-04-06T11:56:53.851Z,38.38
2019-04-06T11:59:29.413Z,38.00
2019-04-06T12:02:22.250Z,38.00
2019-04-06T12:05:11.019Z,36.68
2019-04-06T12:07:56.928Z,41.08
2019-04-06T12:10:29.080Z,37.28
2019-04-06T12:13:14.762Z,39.58
2019-04-06T12:15:59.486Z,37.50
2019-04-06T12:18:49.094Z,34.30
2019-04-06T12:21:25.182Z,38.67
2019-04-06T12:24:14.566Z,34.88
2019-04-06T12:26:52.027Z,35.78
2019-04-06T12:29:47.733Z,35.68
2019-04-06T12:32:25.605Z,36.63
2019-04-06T12:35:09.728Z,33.10
2019-04-06T12:37:50.212Z,34.88
2019-04-06T12:40:23.409Z,38.88
2019-04-06T12:43:02.746Z,38.02
2019-04-06T12:45:45.010Z,33.85
2019-04-06T12:48:20.759Z,31.15
2019-04-06T12:51:09.754Z,29.55
2019-04-06T12:53:51.122Z,33.18
2019-04-06T12:56:25.942Z,30.30
2019-04-06T12:59:11.325Z,36.93
2019-04-06T13:01:46.936Z,35.73
2019-04-06T13:04:34.054Z,31.42
2019-04-06T13:07:19.523Z,28.60
2019-04-06T13:10:04.710Z,32.50
2019-04-06T13:13:03.313Z,27.70
2019-04-06T13:15:52.931Z,30.48
2019-04-06T13:18:32.340Z,30.72
2019-04-06T13:21:07.561Z,34.13
2019-04-06T13:23:42.820Z,33.73
2019-04-06T13:26:22.015Z,29.57
2019-04-06T13:29:08.847Z,28.12
2019-04-06T13:31:55.103Z,25.27
2019-04-06T13:34:29.036Z,21.73
2019-04-06T13:37:27.850Z,21.07
2019-04-06T13:40:18.366Z,20.02
2019-04-06T13:43:03.587Z,20.80
2019-04-06T13:45:56.378Z,21.42
2019-04-06T13:48:34.501Z,20.82
2019-04-06T13:51:20.663Z,20.25
2019-04-06T13:54:10.089Z,20.80
2019-04-06T13:56:55.371Z,19.37
2019-04-06T13:59:42.081Z,19.05
2019-04-06T14:02:24.697Z,23.22
2019-04-06T14:05:11.617Z,20.72
2019-04-06T14:08:01.102Z,21.85
2019-04-06T14:10:38.129Z,18.77
2019-04-06T14:13:24.775Z,18.77
2019-04-06T14:16:01.053Z,18.37
2019-04-06T14:18:47.094Z,19.57
2019-04-06T14:21:32.674Z,18.92
2019-04-06T14:24:32.081Z,20.62
2019-04-06T14:27:17.682Z,20.97
2019-04-06T14:30:03.479Z,26.57
2019-04-06T14:32:52.912Z,22.25
2019-04-06T14:35:40.195Z,21.52
2019-04-06T14:38:25.830Z,21.80
2019-04-06T14:41:16.720Z,19.57
2019-04-06T14:44:02.317Z,20.85
2019-04-06T14:46:47.654Z,17.15
2019-04-06T14:49:33.289Z,19.55
2019-04-06T14:52:15.636Z,19.60
2019-04-06T14:55:02.589Z,17.48
2019-04-06T14:57:36.547Z,19.98
2019-04-06T15:00:22.998Z,17.85
2019-04-06T15:02:58.273Z,17.82
2019-04-06T15:05:52.416Z,16.15
2019-04-06T15:08:26.985Z,16.75
2019-04-06T15:11:10.980Z,18.40
2019-04-06T15:13:57.995Z,17.35
2019-04-06T15:16:39.108Z,17.90
2019-04-06T15:19:18.024Z,20.88
2019-04-06T15:22:07.822Z,21.12
2019-04-06T15:24:41.045Z,51.70
2019-04-06T15:27:25.490Z,19.02
2019-04-06T15:30:00.429Z,18.77
2019-04-06T15:32:37.027Z,17.75
2019-04-06T15:35:23.002Z,19.15
2019-04-06T15:38:08.369Z,18.17
2019-04-06T15:40:53.751Z,19.65
2019-04-06T15:43:40.481Z,20.02
2019-04-06T15:46:32.082Z,21.02
2019-04-06T15:49:11.301Z,26.27
2019-04-06T15:51:46.537Z,28.35
2019-04-06T15:54:31.913Z,27.25
2019-04-06T15:57:06.901Z,27.22
2019-04-06T15:59:40.897Z,28.67
2019-04-06T16:02:17.219Z,31.70
2019-04-06T16:04:50.488Z,32.00
2019-04-06T16:07:36.189Z,35.98
2019-04-06T16:10:11.545Z,31.87
2019-04-06T16:12:51.109Z,33.78
2019-04-06T16:15:26.161Z,32.23
2019-04-06T16:18:13.562Z,33.35
2019-04-06T16:20:48.903Z,32.78
2019-04-06T16:23:34.031Z,32.90
2019-04-06T16:26:09.518Z,35.00
2019-04-06T16:28:42.864Z,30.88
2019-04-06T16:31:31.980Z,33.00
2019-04-06T16:34:34.246Z,31.07
2019-04-06T16:37:17.769Z,33.73
2019-04-06T16:40:10.611Z,31.42
2019-04-06T16:42:59.667Z,31.62
2019-04-06T16:45:52.480Z,31.82
2019-04-06T16:48:27.789Z,35.92
2019-04-06T16:51:14.862Z,32.23
2019-04-06T16:54:04.082Z,32.80
2019-04-06T16:56:42.127Z,34.90
2019-04-06T16:59:19.527Z,32.33
2019-04-06T17:01:54.742Z,36.48
2019-04-06T17:04:40.587Z,33.05
2019-04-06T17:07:20.146Z,36.93
2019-04-06T17:09:56.434Z,37.45
2019-04-06T17:12:43.137Z,34.33
2019-04-06T17:15:29.721Z,35.43
2019-04-06T17:18:15.419Z,33.50
2019-04-06T17:20:51.999Z,35.15
2019-04-06T17:23:41.658Z,36.50
2019-04-06T17:26:16.487Z,43.98
2019-04-06T17:28:56.184Z,40.67
2019-04-06T17:31:36.645Z,37.67
2019-04-06T17:34:29.399Z,38.17
2019-04-06T17:37:03.015Z,39.50
2019-04-06T17:39:42.716Z,36.75
2019-04-06T17:42:38.431Z,41.30
2019-04-06T17:45:19.615Z,35.00
2019-04-06T17:47:55.350Z,34.83
2019-04-06T17:50:42.212Z,30.77
2019-04-06T17:53:20.159Z,36.15
2019-04-06T17:56:05.467Z,35.80
2019-04-06T17:58:52.199Z,34.75
2019-04-06T18:01:41.078Z,34.78
2019-04-06T18:04:17.347Z,38.90
2019-04-06T18:07:00.002Z,37.80
2019-04-06T18:09:37.640Z,42.80
2019-04-06T18:12:25.447Z,39.15
2019-04-06T18:14:52.581Z,40.08
2019-04-06T18:17:20.530Z,38.20
2019-04-06T18:19:48.251Z,43.42
2019-04-06T18:22:15.795Z,39.05
2019-04-06T18:24:43.453Z,38.33
2019-04-06T18:27:10.769Z,40.12
2019-04-06T18:29:37.935Z,40.15
2019-04-06T18:32:25.446Z,36.23
2019-04-06T18:34:52.595Z,38.78
2019-04-06T18:37:42.457Z,39.42
2019-04-06T18:40:23.692Z,35.23
2019-04-06T18:42:52.921Z,41.08
2019-04-06T18:45:20.161Z,37.93
2019-04-06T18:47:47.635Z,37.60
2019-04-06T18:50:14.855Z,40.58
2019-04-06T18:52:43.119Z,40.50
2019-04-06T18:55:11.315Z,41.30
2019-04-06T18:57:38.578Z,41.20
2019-04-06T19:00:08.525Z,42.53
2019-04-06T19:02:36.943Z,42.83
2019-04-06T19:05:06.339Z,37.20
2019-04-06T19:07:33.875Z,52.25
2019-04-06T19:10:01.583Z,40.12
2019-04-06T19:12:28.627Z,37.48
2019-04-06T19:14:55.850Z,42.33
2019-04-06T19:17:23.552Z,45.50
2019-04-06T19:19:51.168Z,42.60
2019-04-06T19:22:18.352Z,40.88
2019-04-06T19:24:46.331Z,44.50
2019-04-06T19:27:13.715Z,45.50
2019-04-06T19:29:40.839Z,41.98
2019-04-06T19:32:07.893Z,39.95
2019-04-06T19:34:35.113Z,40.05
2019-04-06T19:37:02.372Z,40.75
2019-04-06T19:39:29.344Z,44.27
2019-04-06T19:41:56.421Z,43.28
2019-04-06T19:44:23.511Z,41.65
2019-04-06T19:46:51.198Z,41.05
2019-04-06T19:49:18.294Z,42.78
2019-04-06T19:51:45.266Z,43.98
2019-04-06T19:54:12.231Z,44.88
2019-04-06T19:56:39.789Z,43.90
2019-04-06T19:59:06.955Z,48.38
2019-04-06T20:01:34.683Z,41.48
2019-04-06T20:04:01.839Z,43.23
2019-04-06T20:06:30.694Z,44.35
2019-04-06T20:08:57.880Z,45.60
2019-04-06T20:11:25.552Z,42.48
2019-04-06T20:13:52.695Z,51.08
2019-04-06T20:16:20.143Z,43.63
2019-04-06T20:18:47.685Z,44.53
2019-04-06T20:21:15.486Z,46.68
2019-04-06T20:23:42.916Z,49.93
2019-04-06T20:26:10.112Z,43.58
2019-04-06T20:28:37.114Z,45.40
2019-04-06T20:31:04.820Z,45.10
2019-04-06T20:33:31.902Z,58.70
2019-04-06T20:35:59.011Z,42.93
2019-04-06T20:38:26.229Z,42.05
2019-04-06T20:40:53.829Z,47.60
2019-04-06T20:43:21.334Z,47.05
2019-04-06T20:45:48.836Z,42.38
2019-04-06T20:48:16.946Z,44.70
2019-04-06T20:50:44.123Z,48.13
2019-04-06T20:53:11.071Z,45.03
2019-04-06T20:55:38.080Z,59.03
2019-04-06T20:58:05.096Z,46.05
2019-04-06T21:00:32.402Z,46.02
2019-04-06T21:02:59.738Z,43.90
2019-04-06T21:05:26.831Z,46.80
2019-04-06T21:07:54.165Z,46.35
2019-04-06T21:10:21.365Z,47.80
2019-04-06T21:12:48.663Z,46.20
2019-04-06T21:15:19.894Z,51.55
2019-04-06T21:17:45.471Z,45.00
2019-04-06T21:20:13.046Z,44.18
2019-04-06T21:22:40.842Z,45.58
2019-04-06T21:25:08.641Z,46.58
2019-04-06T21:27:36.114Z,47.38
2019-04-06T21:30:05.005Z,46.13
2019-04-06T21:32:32.576Z,46.85
2019-04-06T21:35:00.369Z,45.67
2019-04-06T21:37:27.773Z,52.00
2019-04-06T21:39:55.024Z,48.63
2019-04-06T21:42:21.999Z,50.00
2019-04-06T21:44:49.161Z,56.13
2019-04-06T21:47:16.734Z,44.63
2019-04-06T21:49:43.854Z,44.70
2019-04-06T21:52:11.325Z,51.65
2019-04-06T21:54:38.405Z,49.38
2019-04-06T21:57:05.352Z,47.85
2019-04-06T21:59:33.943Z,51.10
2019-04-06T22:02:01.574Z,47.60
2019-04-06T22:04:30.436Z,54.23
2019-04-06T22:06:57.434Z,49.13
2019-04-06T22:09:24.499Z,55.23
2019-04-06T22:11:51.595Z,48.17
2019-04-06T22:14:19.182Z,44.80
2019-04-06T22:16:46.938Z,49.30
2019-04-06T22:19:14.628Z,77.37
2019-04-06T22:21:42.955Z,52.33
2019-04-06T22:24:10.558Z,49.98
2019-04-06T22:26:38.301Z,44.93
2019-04-06T22:29:06.483Z,52.60
2019-04-06T22:31:33.695Z,49.55
2019-04-06T22:34:01.608Z,46.95
2019-04-06T22:36:29.212Z,48.50
2019-04-06T22:38:56.436Z,47.23
2019-04-06T22:41:24.013Z,44.60
2019-04-06T22:43:51.328Z,50.45
2019-04-06T22:46:18.881Z,42.23
2019-04-06T22:48:45.919Z,48.30
2019-04-06T22:51:13.059Z,46.23
2019-04-06T22:53:40.894Z,51.80
2019-04-06T22:56:08.028Z,46.45
2019-04-06T22:58:35.761Z,49.90
2019-04-06T23:01:09.605Z,44.05
2019-04-06T23:04:07.582Z,46.18
2019-04-06T23:06:39.089Z,46.65
2019-04-06T23:09:07.407Z,47.27
2019-04-06T23:11:35.523Z,50.05
2019-04-06T23:14:03.054Z,42.93
2019-04-06T23:16:31.440Z,47.33
2019-04-06T23:18:58.789Z,45.43
2019-04-06T23:21:25.955Z,41.55
2019-04-06T23:23:53.879Z,47.75
2019-04-06T23:26:21.417Z,44.45
2019-04-06T23:28:49.024Z,45.15
2019-04-06T23:31:17.380Z,46.08
2019-04-06T23:33:45.025Z,43.83
2019-04-06T23:36:12.092Z,45.03
2019-04-06T23:38:39.529Z,40.98
2019-04-06T23:41:06.754Z,43.70
2019-04-06T23:43:34.866Z,42.30
2019-04-06T23:46:02.058Z,42.50
2019-04-06T23:48:29.470Z,42.27
2019-04-06T23:50:56.434Z,44.95
2019-04-06T23:53:24.136Z,42.98
2019-04-06T23:55:51.769Z,45.83
2019-04-06T23:58:19.258Z,45.00
